Terminal Aerodrome Forecast
Issued by NWS Melbourne, FL

Home | Current Version | Previous Version | Text Only | Print | Product List | Glossary On
Versions: 1 2 3 4 5 6 7 8 9 10 11 12 13 14 15 16 17
000
FTUS42 KMLB 291725
TAFMLB
TAF
KMLB 291725Z 2918/3018 21009KT P6SM VCSH SCT030 SCT035 SCT050
     FM291900 20009KT P6SM VCTS SCT040CB SCT060
      TEMPO 2919/2921 4SM TSRA BKN025CB BKN035
     FM300200 21004KT P6SM SCT080 BKN250
     FM301700 12008KT P6SM VCSH SCT030 SCT050=

USA.gov is the U.S. government's official web portal to all federal, state and local government web resources and services.